sensor_id;sensor_type;location;lat;lon;timestamp;pressure;altitude;pressure_sealevel;temperature;humidity
70254;BME280;57649;42.968;1.608;2024-03-23T00:55:51;97615.19;;;14.85;100.00
70254;BME280;57649;42.968;1.608;2024-03-23T00:58:17;97604.25;;;14.86;100.00
70254;BME280;57649;42.968;1.608;2024-03-23T01:00:42;97604.31;;;14.93;100.00
70254;BME280;57649;42.968;1.608;2024-03-23T01:03:08;97620.59;;;14.85;100.00
70254;BME280;57649;42.968;1.608;2024-03-23T01:05:33;97597.16;;;14.85;100.00
70254;BME280;57649;42.968;1.608;2024-03-23T01:07:58;97624.44;;;14.75;100.00
70254;BME280;57649;42.968;1.608;2024-03-23T01:10:24;97620.31;;;14.79;100.00
70254;BME280;57649;42.968;1.608;2024-03-23T01:12:49;97613.75;;;14.82;100.00
70254;BME280;57649;42.968;1.608;2024-03-23T01:15:15;97630.47;;;14.77;100.00
70254;BME280;57649;42.968;1.608;2024-03-23T01:17:40;97635.47;;;14.80;100.00
70254;BME280;57649;42.968;1.608;2024-03-23T01:20:06;97625.72;;;14.79;100.00
70254;BME280;57649;42.968;1.608;2024-03-23T01:22:31;97629.50;;;14.85;100.00
70254;BME280;57649;42.968;1.608;2024-03-23T01:24:57;97627.50;;;14.72;100.00
70254;BME280;57649;42.968;1.608;2024-03-23T01:27:22;97641.38;;;14.69;100.00
70254;BME280;57649;42.968;1.608;2024-03-23T01:29:48;97643.41;;;14.67;100.00
70254;BME280;57649;42.968;1.608;2024-03-23T01:32:13;97648.13;;;14.65;100.00
70254;BME280;57649;42.968;1.608;2024-03-23T01:34:39;97646.75;;;14.69;100.00
70254;BME280;57649;42.968;1.608;2024-03-23T01:37:04;97647.56;;;14.70;100.00
70254;BME280;57649;42.968;1.608;2024-03-23T01:39:30;97655.09;;;14.59;100.00
70254;BME280;57649;42.968;1.608;2024-03-23T01:41:55;97652.88;;;14.63;100.00
70254;BME280;57649;42.968;1.608;2024-03-23T01:44:21;97645.66;;;14.63;100.00
70254;BME280;57649;42.968;1.608;2024-03-23T01:46:46;97652.78;;;14.71;100.00
70254;BME280;57649;42.968;1.608;2024-03-23T01:49:12;97656.88;;;14.67;100.00
70254;BME280;57649;42.968;1.608;2024-03-23T01:51:38;97644.97;;;14.61;100.00
70254;BME280;57649;42.968;1.608;2024-03-23T01:54:05;97645.25;;;14.67;100.00
70254;BME280;57649;42.968;1.608;2024-03-23T01:56:34;97643.78;;;14.64;100.00
70254;BME280;57649;42.968;1.608;2024-03-23T01:59:06;97643.94;;;14.77;100.00
70254;BME280;57649;42.968;1.608;2024-03-23T02:01:33;97639.50;;;14.70;100.00
70254;BME280;57649;42.968;1.608;2024-03-23T02:04:01;97652.50;;;14.66;100.00
70254;BME280;57649;42.968;1.608;2024-03-23T02:06:27;97652.41;;;14.59;100.00
70254;BME280;57649;42.968;1.608;2024-03-23T02:08:53;97645.81;;;14.62;100.00
70254;BME280;57649;42.968;1.608;2024-03-23T02:11:18;97652.41;;;14.59;100.00
70254;BME280;57649;42.968;1.608;2024-03-23T02:13:44;97637.44;;;14.57;100.00
70254;BME280;57649;42.968;1.608;2024-03-23T02:16:09;97651.28;;;14.69;100.00
70254;BME280;57649;42.968;1.608;2024-03-23T02:18:35;97649.81;;;14.66;100.00
70254;BME280;57649;42.968;1.608;2024-03-23T02:21:00;97646.47;;;14.64;100.00
70254;BME280;57649;42.968;1.608;2024-03-23T02:23:26;97647.47;;;14.63;100.00
70254;BME280;57649;42.968;1.608;2024-03-23T02:25:51;97647.56;;;14.55;100.00
70254;BME280;57649;42.968;1.608;2024-03-23T02:28:18;97641.53;;;14.53;100.00
70254;BME280;57649;42.968;1.608;2024-03-23T02:30:44;97654.38;;;14.51;100.00
70254;BME280;57649;42.968;1.608;2024-03-23T02:33:09;97649.97;;;14.50;100.00
70254;BME280;57649;42.968;1.608;2024-03-23T02:35:34;97656.38;;;14.49;100.00
70254;BME280;57649;42.968;1.608;2024-03-23T02:38:00;97651.59;;;14.59;100.00
70254;BME280;57649;42.968;1.608;2024-03-23T02:40:25;97641.91;;;14.50;100.00
70254;BME280;57649;42.968;1.608;2024-03-23T02:42:52;97647.75;;;14.53;100.00
70254;BME280;57649;42.968;1.608;2024-03-23T02:45:17;97651.44;;;14.52;100.00
70254;BME280;57649;42.968;1.608;2024-03-23T02:47:43;97648.28;;;14.49;100.00
70254;BME280;57649;42.968;1.608;2024-03-23T02:50:08;97646.28;;;14.51;100.00
70254;BME280;57649;42.968;1.608;2024-03-23T02:52:36;97640.22;;;14.49;100.00
70254;BME280;57649;42.968;1.608;2024-03-23T02:55:03;97645.25;;;14.52;100.00
70254;BME280;57649;42.968;1.608;2024-03-23T02:57:28;97639.50;;;14.55;100.00
70254;BME280;57649;42.968;1.608;2024-03-23T02:59:54;97642.50;;;14.60;100.00
70254;BME280;57649;42.968;1.608;2024-03-23T03:02:20;97641.13;;;14.56;100.00
70254;BME280;57649;42.968;1.608;2024-03-23T03:04:46;97653.28;;;14.60;100.00
70254;BME280;57649;42.968;1.608;2024-03-23T03:07:11;97652.13;;;14.54;100.00
70254;BME280;57649;42.968;1.608;2024-03-23T03:09:37;97646.19;;;14.59;100.00
70254;BME280;57649;42.968;1.608;2024-03-23T03:12:05;97648.41;;;14.40;100.00
70254;BME280;57649;42.968;1.608;2024-03-23T03:14:30;97644.22;;;14.53;100.00
70254;BME280;57649;42.968;1.608;2024-03-23T03:16:56;97649.06;;;14.42;100.00
70254;BME280;57649;42.968;1.608;2024-03-23T03:19:21;97648.59;;;14.39;100.00
70254;BME280;57649;42.968;1.608;2024-03-23T03:21:47;97645.25;;;14.37;100.00
70254;BME280;57649;42.968;1.608;2024-03-23T03:24:13;97640.69;;;14.22;100.00
70254;BME280;57649;42.968;1.608;2024-03-23T03:26:38;97652.88;;;14.33;100.00
70254;BME280;57649;42.968;1.608;2024-03-23T03:29:04;97647.84;;;14.30;100.00
70254;BME280;57649;42.968;1.608;2024-03-23T03:31:29;97637.34;;;14.20;100.00
70254;BME280;57649;42.968;1.608;2024-03-23T03:33:55;97630.09;;;14.06;100.00
70254;BME280;57649;42.968;1.608;2024-03-23T03:36:20;97627.78;;;14.03;100.00
70254;BME280;57649;42.968;1.608;2024-03-23T03:38:46;97635.47;;;13.91;100.00
70254;BME280;57649;42.968;1.608;2024-03-23T03:41:11;97632.19;;;13.81;100.00
70254;BME280;57649;42.968;1.608;2024-03-23T03:43:37;97634.16;;;13.72;100.00
70254;BME280;57649;42.968;1.608;2024-03-23T03:46:03;97638.81;;;13.55;100.00
70254;BME280;57649;42.968;1.608;2024-03-23T03:48:28;97636.44;;;13.60;100.00
70254;BME280;57649;42.968;1.608;2024-03-23T03:50:54;97644.59;;;13.52;100.00
70254;BME280;57649;42.968;1.608;2024-03-23T03:53:19;97637.22;;;13.46;100.00
70254;BME280;57649;42.968;1.608;2024-03-23T03:55:45;97638.09;;;13.46;100.00
70254;BME280;57649;42.968;1.608;2024-03-23T03:58:10;97641.94;;;13.44;100.00
70254;BME280;57649;42.968;1.608;2024-03-23T04:00:36;97655.03;;;13.47;100.00
70254;BME280;57649;42.968;1.608;2024-03-23T04:03:02;97658.88;;;13.53;100.00
70254;BME280;57649;42.968;1.608;2024-03-23T04:05:27;97649.22;;;13.58;100.00
70254;BME280;57649;42.968;1.608;2024-03-23T04:07:53;97653.84;;;13.50;100.00
70254;BME280;57649;42.968;1.608;2024-03-23T04:10:19;97656.53;;;13.50;100.00
70254;BME280;57649;42.968;1.608;2024-03-23T04:12:44;97651.06;;;13.43;100.00
70254;BME280;57649;42.968;1.608;2024-03-23T04:15:10;97654.00;;;13.25;100.00
70254;BME280;57649;42.968;1.608;2024-03-23T04:17:36;97655.88;;;13.24;100.00
70254;BME280;57649;42.968;1.608;2024-03-23T04:20:02;97650.66;;;13.23;100.00
70254;BME280;57649;42.968;1.608;2024-03-23T04:22:29;97645.38;;;13.29;100.00
70254;BME280;57649;42.968;1.608;2024-03-23T04:24:57;97645.28;;;13.23;100.00
70254;BME280;57649;42.968;1.608;2024-03-23T04:27:25;97638.59;;;13.19;100.00
70254;BME280;57649;42.968;1.608;2024-03-23T04:29:51;97642.03;;;13.27;100.00
70254;BME280;57649;42.968;1.608;2024-03-23T04:32:17;97647.75;;;13.33;100.00
70254;BME280;57649;42.968;1.608;2024-03-23T04:34:43;97648.41;;;13.35;100.00
70254;BME280;57649;42.968;1.608;2024-03-23T04:37:09;97653.25;;;13.39;100.00
70254;BME280;57649;42.968;1.608;2024-03-23T04:39:38;97657.84;;;13.31;100.00
70254;BME280;57649;42.968;1.608;2024-03-23T04:42:04;97660.47;;;13.39;100.00
70254;BME280;57649;42.968;1.608;2024-03-23T04:44:30;97660.06;;;13.50;100.00
70254;BME280;57649;42.968;1.608;2024-03-23T04:46:59;97661.44;;;13.46;100.00
70254;BME280;57649;42.968;1.608;2024-03-23T04:49:25;97671.09;;;13.55;100.00
70254;BME280;57649;42.968;1.608;2024-03-23T04:51:51;97677.38;;;13.47;100.00
70254;BME280;57649;42.968;1.608;2024-03-23T04:54:16;97663.75;;;13.49;100.00
70254;BME280;57649;42.968;1.608;2024-03-23T04:56:41;97673.53;;;13.50;100.00
70254;BME280;57649;42.968;1.608;2024-03-23T04:59:07;97665.94;;;13.54;100.00
70254;BME280;57649;42.968;1.608;2024-03-23T05:01:32;97678.16;;;13.56;100.00
70254;BME280;57649;42.968;1.608;2024-03-23T05:03:58;97676.88;;;13.52;100.00
70254;BME280;57649;42.968;1.608;2024-03-23T05:06:24;97678.16;;;13.56;100.00
70254;BME280;57649;42.968;1.608;2024-03-23T05:08:51;97681.84;;;13.55;100.00
70254;BME280;57649;42.968;1.608;2024-03-23T05:11:16;97680.97;;;13.40;100.00
70254;BME280;57649;42.968;1.608;2024-03-23T05:13:42;97684.50;;;13.40;100.00
70254;BME280;57649;42.968;1.608;2024-03-23T05:16:07;97700.59;;;13.17;100.00
70254;BME280;57649;42.968;1.608;2024-03-23T05:18:34;97707.53;;;13.12;100.00
70254;BME280;57649;42.968;1.608;2024-03-23T05:20:59;97718.84;;;12.99;100.00
70254;BME280;57649;42.968;1.608;2024-03-23T05:23:25;97721.56;;;12.90;100.00
70254;BME280;57649;42.968;1.608;2024-03-23T05:25:51;97731.56;;;12.65;100.00
70254;BME280;57649;42.968;1.608;2024-03-23T05:28:17;97737.66;;;12.51;100.00
70254;BME280;57649;42.968;1.608;2024-03-23T05:30:43;97743.91;;;12.35;100.00
70254;BME280;57649;42.968;1.608;2024-03-23T05:33:08;97759.72;;;12.22;100.00
70254;BME280;57649;42.968;1.608;2024-03-23T05:35:34;97776.63;;;12.14;100.00
70254;BME280;57649;42.968;1.608;2024-03-23T05:37:59;97785.19;;;12.01;100.00
70254;BME280;57649;42.968;1.608;2024-03-23T05:40:26;97790.00;;;11.81;100.00
70254;BME280;57649;42.968;1.608;2024-03-23T05:42:52;97802.59;;;11.72;100.00
70254;BME280;57649;42.968;1.608;2024-03-23T05:45:21;97803.59;;;11.63;100.00
70254;BME280;57649;42.968;1.608;2024-03-23T05:47:48;97820.47;;;11.55;100.00
70254;BME280;57649;42.968;1.608;2024-03-23T05:50:13;97833.72;;;11.57;100.00
70254;BME280;57649;42.968;1.608;2024-03-23T05:52:39;97840.75;;;11.50;100.00
70254;BME280;57649;42.968;1.608;2024-03-23T05:55:05;97854.66;;;11.45;100.00
70254;BME280;57649;42.968;1.608;2024-03-23T05:57:31;97856.50;;;11.45;100.00
70254;BME280;57649;42.968;1.608;2024-03-23T05:59:57;97848.13;;;11.48;100.00
70254;BME280;57649;42.968;1.608;2024-03-23T06:02:22;97848.19;;;11.22;100.00
70254;BME280;57649;42.968;1.608;2024-03-23T06:04:48;97848.88;;;11.24;100.00
70254;BME280;57649;42.968;1.608;2024-03-23T06:07:13;97862.13;;;11.33;100.00
70254;BME280;57649;42.968;1.608;2024-03-23T06:09:40;97860.78;;;11.29;100.00
70254;BME280;57649;42.968;1.608;2024-03-23T06:12:06;97859.22;;;11.10;100.00
70254;BME280;57649;42.968;1.608;2024-03-23T06:14:31;97865.09;;;10.88;100.00
70254;BME280;57649;42.968;1.608;2024-03-23T06:16:58;97861.19;;;10.74;100.00
70254;BME280;57649;42.968;1.608;2024-03-23T06:19:58;97884.53;;;10.64;100.00
70254;BME280;57649;42.968;1.608;2024-03-23T06:22:41;97866.84;;;10.45;100.00
70254;BME280;57649;42.968;1.608;2024-03-23T06:25:25;97878.38;;;10.45;100.00
70254;BME280;57649;42.968;1.608;2024-03-23T06:27:56;97873.50;;;10.40;100.00
70254;BME280;57649;42.968;1.608;2024-03-23T06:30:31;97881.84;;;10.37;100.00
70254;BME280;57649;42.968;1.608;2024-03-23T06:33:05;97881.19;;;10.26;100.00
70254;BME280;57649;42.968;1.608;2024-03-23T06:35:35;97894.56;;;10.26;100.00
70254;BME280;57649;42.968;1.608;2024-03-23T06:38:03;97896.03;;;10.20;100.00
70254;BME280;57649;42.968;1.608;2024-03-23T06:40:40;97887.66;;;10.15;100.00
70254;BME280;57649;42.968;1.608;2024-03-23T06:43:33;97899.34;;;10.32;100.00
70254;BME280;57649;42.968;1.608;2024-03-23T06:46:08;97894.38;;;10.19;100.00
70254;BME280;57649;42.968;1.608;2024-03-23T06:48:44;97896.41;;;10.25;100.00
70254;BME280;57649;42.968;1.608;2024-03-23T06:51:47;97895.03;;;10.21;100.00
70254;BME280;57649;42.968;1.608;2024-03-23T06:54:12;97906.38;;;10.33;100.00
70254;BME280;57649;42.968;1.608;2024-03-23T06:56:56;97908.50;;;10.47;100.00
70254;BME280;57649;42.968;1.608;2024-03-23T06:59:21;97901.16;;;10.49;100.00
70254;BME280;57649;42.968;1.608;2024-03-23T07:02:01;97908.47;;;10.65;100.00
70254;BME280;57649;42.968;1.608;2024-03-23T07:04:46;97928.38;;;10.63;100.00
70254;BME280;57649;42.968;1.608;2024-03-23T07:07:14;97913.25;;;10.53;100.00
70254;BME280;57649;42.968;1.608;2024-03-23T07:09:39;97911.78;;;10.59;100.00
70254;BME280;57649;42.968;1.608;2024-03-23T07:14:55;97910.44;;;10.81;100.00
70254;BME280;57649;42.968;1.608;2024-03-23T07:17:49;97919.88;;;10.93;100.00
70254;BME280;57649;42.968;1.608;2024-03-23T07:20:19;97908.81;;;10.88;100.00
70254;BME280;57649;42.968;1.608;2024-03-23T07:23:08;97911.78;;;10.85;100.00
70254;BME280;57649;42.968;1.608;2024-03-23T07:26:01;97919.19;;;10.91;100.00
70254;BME280;57649;42.968;1.608;2024-03-23T07:28:45;97911.69;;;10.69;100.00
70254;BME280;57649;42.968;1.608;2024-03-23T07:31:15;97927.50;;;10.80;100.00
70254;BME280;57649;42.968;1.608;2024-03-23T07:37:06;97917.78;;;10.79;100.00
70254;BME280;57649;42.968;1.608;2024-03-23T07:39:32;97920.25;;;10.98;100.00
70254;BME280;57649;42.968;1.608;2024-03-23T07:41:59;97924.47;;;11.01;100.00
70254;BME280;57649;42.968;1.608;2024-03-23T07:44:24;97925.88;;;10.87;100.00
70254;BME280;57649;42.968;1.608;2024-03-23T07:46:50;97930.28;;;10.70;100.00
70254;BME280;57649;42.968;1.608;2024-03-23T07:49:15;97928.44;;;10.71;100.00
70254;BME280;57649;42.968;1.608;2024-03-23T07:51:41;97916.41;;;10.75;100.00
70254;BME280;57649;42.968;1.608;2024-03-23T07:54:06;97922.47;;;10.77;100.00
70254;BME280;57649;42.968;1.608;2024-03-23T07:56:32;97921.06;;;10.73;100.00
70254;BME280;57649;42.968;1.608;2024-03-23T07:58:57;97915.16;;;10.87;100.00
70254;BME280;57649;42.968;1.608;2024-03-23T08:01:22;97915.56;;;11.01;100.00
70254;BME280;57649;42.968;1.608;2024-03-23T08:03:49;97904.25;;;11.15;100.00
70254;BME280;57649;42.968;1.608;2024-03-23T08:06:16;97917.63;;;11.07;100.00
70254;BME280;57649;42.968;1.608;2024-03-23T08:08:44;97911.25;;;11.08;100.00
70254;BME280;57649;42.968;1.608;2024-03-23T08:11:09;97908.50;;;11.26;100.00
70254;BME280;57649;42.968;1.608;2024-03-23T08:13:36;97911.78;;;11.46;100.00
70254;BME280;57649;42.968;1.608;2024-03-23T08:16:02;97901.72;;;11.48;100.00
70254;BME280;57649;42.968;1.608;2024-03-23T08:18:29;97913.03;;;11.60;100.00
70254;BME280;57649;42.968;1.608;2024-03-23T08:21:01;97912.34;;;11.58;100.00
70254;BME280;57649;42.968;1.608;2024-03-23T08:23:28;97909.16;;;11.62;100.00
70254;BME280;57649;42.968;1.608;2024-03-23T08:26:01;97912.41;;;11.82;100.00
70254;BME280;57649;42.968;1.608;2024-03-23T08:28:27;97920.03;;;11.95;100.00
70254;BME280;57649;42.968;1.608;2024-03-23T08:30:53;97919.44;;;11.75;100.00
70254;BME280;57649;42.968;1.608;2024-03-23T08:33:19;97923.50;;;11.87;100.00
70254;BME280;57649;42.968;1.608;2024-03-23T08:35:55;97903.78;;;12.05;100.00
70254;BME280;57649;42.968;1.608;2024-03-23T08:38:21;97920.22;;;12.02;100.00
70254;BME280;57649;42.968;1.608;2024-03-23T08:40:47;97922.88;;;11.93;100.00
70254;BME280;57649;42.968;1.608;2024-03-23T08:43:12;97917.50;;;11.93;100.00
70254;BME280;57649;42.968;1.608;2024-03-23T08:45:38;97920.53;;;11.99;100.00
70254;BME280;57649;42.968;1.608;2024-03-23T08:48:03;97923.06;;;12.00;100.00
70254;BME280;57649;42.968;1.608;2024-03-23T08:50:29;97918.44;;;11.84;100.00
70254;BME280;57649;42.968;1.608;2024-03-23T08:52:54;97909.94;;;11.89;100.00
70254;BME280;57649;42.968;1.608;2024-03-23T08:55:20;97924.75;;;12.09;100.00
70254;BME280;57649;42.968;1.608;2024-03-23T08:57:45;97911.66;;;12.06;100.00
70254;BME280;57649;42.968;1.608;2024-03-23T09:00:11;97916.03;;;12.16;100.00
70254;BME280;57649;42.968;1.608;2024-03-23T09:02:37;97916.22;;;12.30;100.00
70254;BME280;57649;42.968;1.608;2024-03-23T09:05:02;97913.22;;;12.25;100.00
70254;BME280;57649;42.968;1.608;2024-03-23T09:07:32;97913.88;;;12.36;100.00
70254;BME280;57649;42.968;1.608;2024-03-23T09:09:57;97929.16;;;12.51;100.00
70254;BME280;57649;42.968;1.608;2024-03-23T09:12:23;97928.50;;;12.66;100.00
70254;BME280;57649;42.968;1.608;2024-03-23T09:14:50;97937.53;;;12.65;100.00
70254;BME280;57649;42.968;1.608;2024-03-23T09:17:15;97947.59;;;12.55;100.00
70254;BME280;57649;42.968;1.608;2024-03-23T09:19:43;97937.56;;;12.57;100.00
70254;BME280;57649;42.968;1.608;2024-03-23T09:22:08;97954.00;;;12.54;100.00
70254;BME280;57649;42.968;1.608;2024-03-23T09:24:34;97945.25;;;12.35;100.00
70254;BME280;57649;42.968;1.608;2024-03-23T09:26:59;97943.56;;;12.26;100.00
70254;BME280;57649;42.968;1.608;2024-03-23T09:29:31;97946.69;;;12.05;100.00
70254;BME280;57649;42.968;1.608;2024-03-23T09:31:56;97941.69;;;12.10;100.00
70254;BME280;57649;42.968;1.608;2024-03-23T09:34:22;97946.06;;;12.11;100.00
70254;BME280;57649;42.968;1.608;2024-03-23T09:36:51;97941.00;;;12.08;100.00
70254;BME280;57649;42.968;1.608;2024-03-23T09:39:16;97945.19;;;12.10;100.00
70254;BME280;57649;42.968;1.608;2024-03-23T09:41:42;97945.06;;;12.20;100.00
70254;BME280;57649;42.968;1.608;2024-03-23T09:44:08;97952.16;;;11.87;100.00
70254;BME280;57649;42.968;1.608;2024-03-23T09:46:33;97973.09;;;10.88;100.00
70254;BME280;57649;42.968;1.608;2024-03-23T09:49:02;97982.03;;;10.35;100.00
70254;BME280;57649;42.968;1.608;2024-03-23T09:51:31;98005.09;;;10.08;100.00
70254;BME280;57649;42.968;1.608;2024-03-23T09:53:57;98005.13;;;9.80;100.00
70254;BME280;57649;42.968;1.608;2024-03-23T09:56:22;98007.69;;;9.72;100.00
70254;BME280;57649;42.968;1.608;2024-03-23T09:58:49;98005.59;;;9.38;100.00
70254;BME280;57649;42.968;1.608;2024-03-23T10:01:17;98001.53;;;9.24;100.00
70254;BME280;57649;42.968;1.608;2024-03-23T10:03:45;98012.06;;;9.26;100.00
70254;BME280;57649;42.968;1.608;2024-03-23T10:06:11;98017.47;;;9.06;100.00
70254;BME280;57649;42.968;1.608;2024-03-23T10:08:36;98015.81;;;8.86;100.00
70254;BME280;57649;42.968;1.608;2024-03-23T10:11:16;98025.78;;;8.84;100.00
70254;BME280;57649;42.968;1.608;2024-03-23T10:13:43;98024.13;;;8.83;100.00
70254;BME280;57649;42.968;1.608;2024-03-23T10:16:09;98016.53;;;8.78;100.00
70254;BME280;57649;42.968;1.608;2024-03-23T10:18:38;98014.41;;;8.62;100.00
70254;BME280;57649;42.968;1.608;2024-03-23T10:23:34;98001.66;;;8.76;100.00
70254;BME280;57649;42.968;1.608;2024-03-23T10:26:22;98007.38;;;8.91;100.00
70254;BME280;57649;42.968;1.608;2024-03-23T10:31:16;98017.22;;;8.80;100.00
70254;BME280;57649;42.968;1.608;2024-03-23T10:33:46;98012.16;;;8.87;100.00
70254;BME280;57649;42.968;1.608;2024-03-23T10:36:12;98020.84;;;8.99;100.00
70254;BME280;57649;42.968;1.608;2024-03-23T10:38:52;98013.56;;;8.91;100.00
70254;BME280;57649;42.968;1.608;2024-03-23T10:41:18;98009.44;;;9.06;100.00
70254;BME280;57649;42.968;1.608;2024-03-23T10:43:48;98012.84;;;9.09;100.00
70254;BME280;57649;42.968;1.608;2024-03-23T10:46:14;98009.44;;;9.16;100.00
70254;BME280;57649;42.968;1.608;2024-03-23T10:48:39;98002.84;;;9.11;100.00
70254;BME280;57649;42.968;1.608;2024-03-23T10:51:11;98006.88;;;9.34;100.00
70254;BME280;57649;42.968;1.608;2024-03-23T10:53:38;98006.00;;;9.34;100.00
70254;BME280;57649;42.968;1.608;2024-03-23T10:56:05;97988.88;;;9.27;100.00
70254;BME280;57649;42.968;1.608;2024-03-23T10:58:46;98000.66;;;9.43;100.00
70254;BME280;57649;42.968;1.608;2024-03-23T11:01:13;97991.06;;;9.41;100.00
70254;BME280;57649;42.968;1.608;2024-03-23T11:03:44;97986.75;;;9.30;100.00
70254;BME280;57649;42.968;1.608;2024-03-23T11:06:10;97985.41;;;9.54;100.00
70254;BME280;57649;42.968;1.608;2024-03-23T11:08:40;97984.41;;;9.55;100.00
70254;BME280;57649;42.968;1.608;2024-03-23T11:11:22;97980.56;;;9.67;100.00
70254;BME280;57649;42.968;1.608;2024-03-23T11:13:53;97976.34;;;9.64;100.00
70254;BME280;57649;42.968;1.608;2024-03-23T11:16:24;97967.47;;;9.92;100.00
70254;BME280;57649;42.968;1.608;2024-03-23T11:18:51;97959.59;;;9.90;100.00
70254;BME280;57649;42.968;1.608;2024-03-23T11:21:54;97961.38;;;9.99;100.00
70254;BME280;57649;42.968;1.608;2024-03-23T11:24:20;97958.47;;;9.93;100.00
70254;BME280;57649;42.968;1.608;2024-03-23T11:26:46;97944.03;;;10.03;100.00
70254;BME280;57649;42.968;1.608;2024-03-23T11:29:14;97944.19;;;10.20;100.00
70254;BME280;57649;42.968;1.608;2024-03-23T11:31:52;97929.38;;;10.08;100.00
70254;BME280;57649;42.968;1.608;2024-03-23T11:34:19;97938.47;;;9.97;100.00
70254;BME280;57649;42.968;1.608;2024-03-23T11:36:45;97934.78;;;9.98;100.00
70254;BME280;57649;42.968;1.608;2024-03-23T11:39:15;97934.09;;;10.14;100.00
70254;BME280;57649;42.968;1.608;2024-03-23T11:41:52;97913.94;;;10.37;100.00
70254;BME280;57649;42.968;1.608;2024-03-23T11:44:19;97915.53;;;10.48;100.00
70254;BME280;57649;42.968;1.608;2024-03-23T11:46:46;97915.00;;;10.63;100.00
70254;BME280;57649;42.968;1.608;2024-03-23T11:49:28;97907.25;;;10.59;100.00
70254;BME280;57649;42.968;1.608;2024-03-23T11:51:55;97899.25;;;10.42;100.00
70254;BME280;57649;42.968;1.608;2024-03-23T11:54:24;97903.78;;;10.41;100.00
70254;BME280;57649;42.968;1.608;2024-03-23T11:56:57;97896.97;;;10.47;100.00
70254;BME280;57649;42.968;1.608;2024-03-23T11:59:34;97879.44;;;10.52;100.00
70254;BME280;57649;42.968;1.608;2024-03-23T12:02:00;97881.72;;;10.47;100.00
70254;BME280;57649;42.968;1.608;2024-03-23T12:04:30;97881.13;;;10.53;100.00
70254;BME280;57649;42.968;1.608;2024-03-23T12:07:16;97875.41;;;10.48;100.00
70254;BME280;57649;42.968;1.608;2024-03-23T12:09:45;97863.38;;;10.52;100.00
70254;BME280;57649;42.968;1.608;2024-03-23T12:12:15;97861.00;;;10.49;100.00
70254;BME280;57649;42.968;1.608;2024-03-23T12:14:44;97868.75;;;10.34;100.00
70254;BME280;57649;42.968;1.608;2024-03-23T12:17:10;97859.63;;;10.45;100.00
70254;BME280;57649;42.968;1.608;2024-03-23T12:19:36;97862.56;;;10.34;100.00
70254;BME280;57649;42.968;1.608;2024-03-23T12:22:05;97855.44;;;10.25;100.00
70254;BME280;57649;42.968;1.608;2024-03-23T12:24:36;97865.78;;;10.37;100.00
70254;BME280;57649;42.968;1.608;2024-03-23T12:27:02;97844.06;;;10.23;100.00
70254;BME280;57649;42.968;1.608;2024-03-23T12:29:31;97849.56;;;10.21;100.00
70254;BME280;57649;42.968;1.608;2024-03-23T12:32:01;97844.44;;;10.28;100.00
70254;BME280;57649;42.968;1.608;2024-03-23T12:34:27;97840.56;;;10.22;100.00
70254;BME280;57649;42.968;1.608;2024-03-23T12:36:53;97837.66;;;10.15;100.00
70254;BME280;57649;42.968;1.608;2024-03-23T12:39:19;97829.28;;;10.36;100.00
70254;BME280;57649;42.968;1.608;2024-03-23T12:41:46;97829.81;;;10.40;100.00
70254;BME280;57649;42.968;1.608;2024-03-23T12:44:11;97821.59;;;10.33;100.00
70254;BME280;57649;42.968;1.608;2024-03-23T12:46:37;97826.47;;;10.38;100.00
70254;BME280;57649;42.968;1.608;2024-03-23T12:49:03;97829.38;;;10.45;100.00
70254;BME280;57649;42.968;1.608;2024-03-23T12:51:28;97814.53;;;10.58;100.00
70254;BME280;57649;42.968;1.608;2024-03-23T12:53:54;97812.50;;;10.52;100.00
70254;BME280;57649;42.968;1.608;2024-03-23T12:56:19;97812.50;;;10.52;100.00
70254;BME280;57649;42.968;1.608;2024-03-23T12:58:45;97813.78;;;10.66;100.00
70254;BME280;57649;42.968;1.608;2024-03-23T13:01:10;97801.00;;;10.60;100.00
70254;BME280;57649;42.968;1.608;2024-03-23T13:03:36;97803.63;;;10.78;100.00
70254;BME280;57649;42.968;1.608;2024-03-23T13:06:01;97787.56;;;10.78;100.00
70254;BME280;57649;42.968;1.608;2024-03-23T13:08:29;97791.13;;;10.87;100.00
70254;BME280;57649;42.968;1.608;2024-03-23T13:10:55;97781.66;;;11.09;100.00
70254;BME280;57649;42.968;1.608;2024-03-23T13:13:20;97782.75;;;11.32;100.00
70254;BME280;57649;42.968;1.608;2024-03-23T13:15:50;97783.22;;;11.28;100.00
70254;BME280;57649;42.968;1.608;2024-03-23T13:18:22;97777.19;;;11.26;100.00
70254;BME280;57649;42.968;1.608;2024-03-23T13:20:48;97780.69;;;11.26;100.00
70254;BME280;57649;42.968;1.608;2024-03-23T13:23:13;97771.38;;;11.47;100.00
70254;BME280;57649;42.968;1.608;2024-03-23T13:25:39;97773.72;;;11.42;100.00
70254;BME280;57649;42.968;1.608;2024-03-23T13:28:04;97773.41;;;11.45;100.00
70254;BME280;57649;42.968;1.608;2024-03-23T13:30:30;97760.00;;;11.45;100.00
70254;BME280;57649;42.968;1.608;2024-03-23T13:32:55;97750.94;;;11.87;100.00
70254;BME280;57649;42.968;1.608;2024-03-23T13:35:21;97748.13;;;12.13;100.00
70254;BME280;57649;42.968;1.608;2024-03-23T13:37:46;97742.59;;;12.06;100.00
70254;BME280;57649;42.968;1.608;2024-03-23T13:40:12;97746.78;;;12.17;100.00
70254;BME280;57649;42.968;1.608;2024-03-23T13:42:37;97740.44;;;12.02;100.00
70254;BME280;57649;42.968;1.608;2024-03-23T13:45:03;97739.56;;;12.01;100.00
70254;BME280;57649;42.968;1.608;2024-03-23T13:47:29;97726.47;;;12.23;100.00
70254;BME280;57649;42.968;1.608;2024-03-23T13:49:55;97733.53;;;12.16;100.00
70254;BME280;57649;42.968;1.608;2024-03-23T13:52:21;97720.75;;;12.34;100.00
70254;BME280;57649;42.968;1.608;2024-03-23T13:54:48;97715.47;;;12.57;100.00
70254;BME280;57649;42.968;1.608;2024-03-23T13:57:14;97717.81;;;13.00;100.00
70254;BME280;57649;42.968;1.608;2024-03-23T13:59:39;97702.97;;;13.12;100.00